createdAt,value
2022-09-07T00:04:27.696Z,73.46
2022-09-07T00:09:29.118Z,74.62
2022-09-07T00:14:30.576Z,74.75
2022-09-07T00:19:31.867Z,74.77
2022-09-07T00:24:33.171Z,75.98
2022-09-07T00:29:34.484Z,74.47
2022-09-07T00:34:35.757Z,74.56
2022-09-07T00:39:37.611Z,74.91
2022-09-07T00:44:39.126Z,74.62
2022-09-07T00:49:40.476Z,74.73
2022-09-07T00:54:41.867Z,75.01
2022-09-07T00:59:43.230Z,76.01
2022-09-07T01:04:44.532Z,76.57
2022-09-07T01:09:47.250Z,76.64
2022-09-07T01:14:48.567Z,76.04
2022-09-07T01:19:49.872Z,76.26
2022-09-07T01:24:51.257Z,75.87
2022-09-07T01:29:52.596Z,75.19
2022-09-07T01:34:53.962Z,75.14
2022-09-07T01:39:55.322Z,74.69
2022-09-07T01:44:56.703Z,75.17
2022-09-07T01:49:57.986Z,74.92
2022-09-07T01:54:59.575Z,74.95
2022-09-07T02:00:00.859Z,74.87
2022-09-07T02:05:02.172Z,75.13
2022-09-07T02:10:03.736Z,75.32
2022-09-07T02:15:05.204Z,75.31
2022-09-07T02:20:06.604Z,74.99
2022-09-07T02:25:07.967Z,75.07
2022-09-07T02:30:09.246Z,75.82
2022-09-07T02:35:10.591Z,75.51
2022-09-07T02:40:11.924Z,75.27
2022-09-07T02:45:13.295Z,74.91
2022-09-07T02:50:14.667Z,74.76
2022-09-07T02:55:15.976Z,74.93
2022-09-07T03:00:19.148Z,74.87
2022-09-07T03:05:20.512Z,75.04
2022-09-07T03:10:21.823Z,74.74
2022-09-07T03:15:23.299Z,75.26
2022-09-07T03:20:24.835Z,76.14
2022-09-07T03:25:26.145Z,76.46
2022-09-07T03:30:27.508Z,75.90
2022-09-07T03:35:28.888Z,76.55
2022-09-07T03:40:30.246Z,76.91
2022-09-07T03:45:31.571Z,76.32
2022-09-07T03:50:32.945Z,76.46
2022-09-07T03:55:34.235Z,76.52
2022-09-07T04:00:36.095Z,77.26
2022-09-07T04:05:37.559Z,78.39
2022-09-07T04:10:39.367Z,78.64
2022-09-07T04:15:40.679Z,78.37
2022-09-07T04:20:41.959Z,77.42
2022-09-07T04:25:43.246Z,76.81
2022-09-07T04:30:44.644Z,77.70
2022-09-07T04:35:46.020Z,76.95
2022-09-07T04:40:47.349Z,78.31
2022-09-07T04:45:48.865Z,77.87
2022-09-07T04:50:50.267Z,78.94
2022-09-07T04:55:51.554Z,79.17
2022-09-07T05:00:52.862Z,78.95
2022-09-07T05:05:54.202Z,78.87
2022-09-07T05:10:55.527Z,78.85
2022-09-07T05:15:56.867Z,79.59
2022-09-07T05:20:58.179Z,79.57
2022-09-07T05:25:59.452Z,78.86
2022-09-07T05:36:17.402Z,79.05
2022-09-07T05:41:18.994Z,78.77
2022-09-07T05:46:20.513Z,78.83
2022-09-07T05:51:21.875Z,78.52
2022-09-07T05:56:23.358Z,77.74
2022-09-07T06:01:24.869Z,78.41
2022-09-07T06:06:26.214Z,79.40
2022-09-07T06:11:27.784Z,77.77
2022-09-07T06:16:29.226Z,79.20
2022-09-07T06:21:30.535Z,80.17
2022-09-07T06:26:31.936Z,79.38
2022-09-07T06:31:33.515Z,77.99
2022-09-07T06:36:35.072Z,77.72
2022-09-07T06:47:05.119Z,78.56
2022-09-07T06:52:06.859Z,77.72
2022-09-07T06:57:11.177Z,78.78
2022-09-07T07:02:14.769Z,79.02
2022-09-07T07:07:16.159Z,78.56
2022-09-07T07:17:17.738Z,78.94
2022-09-07T07:22:42.961Z,77.84
2022-09-07T07:27:40.648Z,77.01
2022-09-07T07:32:42.107Z,77.26
2022-09-07T07:37:43.354Z,76.73
2022-09-07T07:42:44.702Z,75.30
2022-09-07T07:47:46.042Z,73.14
2022-09-07T07:52:50.780Z,73.11
2022-09-07T07:58:08.563Z,72.94
2022-09-07T08:03:09.841Z,72.79
2022-09-07T08:08:11.624Z,72.43
2022-09-07T08:13:12.896Z,70.97
2022-09-07T08:18:14.168Z,70.82
2022-09-07T08:23:15.630Z,70.58
2022-09-07T08:28:16.896Z,70.58
2022-09-07T08:33:18.137Z,72.56
2022-09-07T08:38:21.135Z,71.37
2022-09-07T08:43:22.471Z,69.79
2022-09-07T08:48:23.809Z,68.12
2022-09-07T08:53:25.629Z,67.47
2022-09-07T08:58:48.252Z,64.52
2022-09-07T09:09:09.495Z,65.14
2022-09-07T09:14:10.862Z,64.94
2022-09-07T09:19:13.200Z,64.80
2022-09-07T09:24:14.557Z,62.81
2022-09-07T09:29:15.821Z,63.79
2022-09-07T09:34:17.752Z,64.50
2022-09-07T09:39:19.001Z,64.24
2022-09-07T09:44:20.240Z,64.72
2022-09-07T09:49:36.816Z,63.34
2022-09-07T09:54:38.067Z,62.33
2022-09-07T10:05:00.550Z,61.18
2022-09-07T10:10:01.763Z,57.71
2022-09-07T10:15:03.363Z,57.40
2022-09-07T10:20:08.875Z,54.71
2022-09-07T10:25:13.810Z,52.75
2022-09-07T10:30:15.046Z,53.98
2022-09-07T10:35:16.919Z,53.79
2022-09-07T10:40:18.334Z,52.45
2022-09-07T10:45:19.630Z,53.13
2022-09-07T10:50:22.514Z,50.71
2022-09-07T10:55:29.509Z,51.33
2022-09-07T11:00:31.185Z,51.86
2022-09-07T11:05:36.102Z,52.78
2022-09-07T11:10:39.521Z,53.65
2022-09-07T11:15:40.795Z,50.78
2022-09-07T11:20:59.521Z,50.21
2022-09-07T11:26:02.775Z,49.95
2022-09-07T11:31:07.598Z,50.83
2022-09-07T11:41:54.580Z,50.11
2022-09-07T11:47:08.926Z,49.32
2022-09-07T11:52:10.307Z,49.57
2022-09-07T11:57:34.391Z,46.37
2022-09-07T12:02:57.732Z,48.80
2022-09-07T12:07:56.958Z,46.52
2022-09-07T12:12:58.264Z,48.68
2022-09-07T12:18:00.780Z,47.69
2022-09-07T12:23:05.258Z,46.23
2022-09-07T12:28:12.982Z,47.33
2022-09-07T12:33:14.251Z,48.44
2022-09-07T12:38:15.502Z,46.50
2022-09-07T12:43:22.868Z,48.23
2022-09-07T12:54:10.050Z,44.82
2022-09-07T12:59:19.482Z,43.46
2022-09-07T13:04:22.968Z,41.21
2022-09-07T13:09:24.332Z,42.62
2022-09-07T13:14:25.690Z,40.83
2022-09-07T13:19:27.227Z,40.64
2022-09-07T13:24:46.083Z,42.33
2022-09-07T13:29:47.884Z,39.82
2022-09-07T13:34:49.188Z,39.41
2022-09-07T13:39:52.566Z,40.36
2022-09-07T13:44:54.147Z,40.05
2022-09-07T13:49:56.196Z,38.62
2022-09-07T13:54:58.605Z,37.22
2022-09-07T14:11:44.013Z,39.55
2022-09-07T14:16:45.661Z,39.29
2022-09-07T14:21:47.150Z,37.58
2022-09-07T14:26:49.092Z,36.66
2022-09-07T14:31:50.728Z,37.87
2022-09-07T14:36:51.976Z,36.90
2022-09-07T14:41:53.513Z,36.96
2022-09-07T14:46:57.495Z,38.18
2022-09-07T14:52:00.748Z,38.38
2022-09-07T14:57:02.587Z,39.74
2022-09-07T15:02:03.905Z,38.01
2022-09-07T15:07:05.163Z,36.64
2022-09-07T15:12:06.399Z,39.59
2022-09-07T15:22:29.524Z,37.23
2022-09-07T15:27:30.875Z,37.23
2022-09-07T15:32:32.169Z,37.89
2022-09-07T15:43:08.515Z,36.58
2022-09-07T15:48:15.230Z,34.20
2022-09-07T15:58:37.682Z,37.27
2022-09-07T16:03:39.000Z,38.46
2022-09-07T16:08:40.527Z,38.29
2022-09-07T16:19:27.627Z,39.91
2022-09-07T16:24:28.987Z,44.51
2022-09-07T16:29:30.223Z,43.99
2022-09-07T16:34:31.503Z,47.96
2022-09-07T16:39:32.806Z,46.54
2022-09-07T16:44:35.195Z,45.40
2022-09-07T16:49:36.465Z,46.19
2022-09-07T16:54:37.737Z,48.66
2022-09-07T16:59:38.963Z,49.58
2022-09-07T17:04:40.176Z,48.47
2022-09-07T17:10:01.932Z,50.09
2022-09-07T17:15:03.211Z,47.03
2022-09-07T17:20:04.467Z,48.34
2022-09-07T17:25:05.802Z,52.47
2022-09-07T17:30:07.044Z,52.12
2022-09-07T17:35:08.352Z,51.95
2022-09-07T17:40:09.754Z,53.23
2022-09-07T17:45:11.639Z,53.62
2022-09-07T17:50:13.078Z,54.93
2022-09-07T17:55:14.343Z,55.59
2022-09-07T18:00:15.637Z,57.53
2022-09-07T18:05:16.901Z,57.25
2022-09-07T18:10:18.467Z,58.83
2022-09-07T18:15:22.122Z,59.83
2022-09-07T18:20:24.405Z,60.18
2022-09-07T18:25:25.762Z,61.13
2022-09-07T18:30:27.020Z,60.12
2022-09-07T18:35:28.277Z,59.87
2022-09-07T18:40:29.542Z,61.59
2022-09-07T18:45:30.763Z,61.19
2022-09-07T18:50:32.747Z,62.10
2022-09-07T18:55:34.011Z,62.68
2022-09-07T19:00:35.272Z,62.30
2022-09-07T19:05:52.839Z,61.23
2022-09-07T19:10:54.499Z,60.69
2022-09-07T19:15:55.793Z,61.76
2022-09-07T19:20:57.140Z,61.64
2022-09-07T19:25:58.388Z,62.15
2022-09-07T19:30:59.736Z,62.28
2022-09-07T19:36:01.001Z,63.36
2022-09-07T19:41:02.323Z,64.67
2022-09-07T19:46:10.529Z,64.41
2022-09-07T19:51:18.614Z,64.75
2022-09-07T19:56:29.035Z,65.17
2022-09-07T20:01:39.787Z,64.36
2022-09-07T20:06:54.096Z,65.86
2022-09-07T20:11:55.657Z,66.13
2022-09-07T20:17:04.532Z,66.18
2022-09-07T20:22:05.823Z,66.04
2022-09-07T20:27:07.039Z,65.79
2022-09-07T20:32:08.351Z,67.12
2022-09-07T20:37:09.655Z,67.90
2022-09-07T20:42:10.917Z,67.69
2022-09-07T20:47:12.641Z,67.15
2022-09-07T20:52:15.785Z,66.58
2022-09-07T20:57:21.000Z,66.90
2022-09-07T21:02:22.435Z,67.04
2022-09-07T21:07:25.732Z,68.03
2022-09-07T21:12:27.011Z,67.67
2022-09-07T21:17:28.234Z,68.38
2022-09-07T21:22:29.496Z,68.58
2022-09-07T21:44:10.266Z,69.63
2022-09-07T21:49:11.638Z,68.87
2022-09-07T21:54:13.342Z,68.87
2022-09-07T21:59:15.094Z,70.14
2022-09-07T22:04:16.549Z,70.29
2022-09-07T22:09:17.811Z,69.57
2022-09-07T22:14:19.191Z,70.20
2022-09-07T22:19:20.433Z,70.17
2022-09-07T22:24:21.731Z,70.25
2022-09-07T22:29:22.954Z,70.38
2022-09-07T22:34:24.232Z,72.17
2022-09-07T22:39:25.499Z,71.08
2022-09-07T22:44:27.560Z,70.90
2022-09-07T22:49:28.995Z,71.20
2022-09-07T22:54:30.220Z,71.35
2022-09-07T22:59:31.881Z,69.64
2022-09-07T23:04:33.192Z,70.68
2022-09-07T23:09:34.496Z,71.55
2022-09-07T23:14:36.026Z,70.81
2022-09-07T23:19:37.279Z,71.03
2022-09-07T23:24:41.551Z,70.61
2022-09-07T23:29:42.877Z,69.86
2022-09-07T23:34:44.114Z,70.38
2022-09-07T23:39:45.381Z,70.32
2022-09-07T23:44:48.492Z,71.82
2022-09-07T23:49:49.733Z,71.76
2022-09-07T23:54:51.011Z,71.90
2022-09-07T23:59:52.254Z,73.98
